METAR Data
IDs: Format: Raw Decoded Include TAF

Data at: 0322 UTC 25 Jan 2020

METAR for:KTVK (Centerville Muni, IA, US)
Text:KTVK 250255Z AUTO 30009KT 10SM BKN010 M01/M01 A2996 RMK AO2
Temperature: -1.0°C ( 30°F)
Dewpoint: -1.0°C ( 30°F) [RH = 100%]
Pressure (altimeter):29.96 inches Hg (1014.6 mb)
Winds:from the WNW (300 degrees) at 10 MPH (9 knots; 4.6 m/s)
Visibility:10 or more sm (16+ km)
Ceiling:1000 feet AGL
Clouds: broken clouds at 1000 feet AGL
QC Flag:automated observation with no human augmentation